sensor_id;sensor_type;location;lat;lon;timestamp;pressure;altitude;pressure_sealevel;temperature;humidity
77824;BME280;67015;46.242;6.028;2023-03-01T00:29:12;97012.0;;;0.65;71.19
77824;BME280;67015;46.242;6.028;2023-03-01T00:59:12;97008.0;;;0.61;70.86
77824;BME280;67015;46.242;6.028;2023-03-01T01:29:13;96979.0;;;0.52;71.16
77824;BME280;67015;46.242;6.028;2023-03-01T01:59:12;96946.0;;;0.47;71.12
77824;BME280;67015;46.242;6.028;2023-03-01T02:29:12;96916.0;;;0.45;71.37
77824;BME280;67015;46.242;6.028;2023-03-01T02:59:12;96877.0;;;0.34;71.9
77824;BME280;67015;46.242;6.028;2023-03-01T03:29:12;96856.0;;;0.31;72.56
77824;BME280;67015;46.242;6.028;2023-03-01T03:59:12;96838.0;;;0.29;72.91
77824;BME280;67015;46.242;6.028;2023-03-01T04:29:14;96829.0;;;0.21;73.05
77824;BME280;67015;46.242;6.028;2023-03-01T04:59:12;96806.0;;;0.24;73.74
77824;BME280;67015;46.242;6.028;2023-03-01T05:29:12;96813.0;;;0.22;74.41
77824;BME280;67015;46.242;6.028;2023-03-01T05:59:12;96806.0;;;0.15;73.67
77824;BME280;67015;46.242;6.028;2023-03-01T06:29:12;96804.0;;;0.13;74.3
77824;BME280;67015;46.242;6.028;2023-03-01T06:59:12;96803.0;;;0.04;73.77
77824;BME280;67015;46.242;6.028;2023-03-01T07:29:12;96795.0;;;0.01;74.06
77824;BME280;67015;46.242;6.028;2023-03-01T07:59:12;96788.0;;;0.14;74.48
77824;BME280;67015;46.242;6.028;2023-03-01T08:29:12;96767.0;;;0.31;72.99
77824;BME280;67015;46.242;6.028;2023-03-01T08:59:12;96772.0;;;0.51;72.6
77824;BME280;67015;46.242;6.028;2023-03-01T09:29:12;96743.0;;;0.73;71.68
77824;BME280;67015;46.242;6.028;2023-03-01T09:59:17;96753.0;;;0.93;71.18
77824;BME280;67015;46.242;6.028;2023-03-01T10:29:12;96724.0;;;1.3;70.16
77824;BME280;67015;46.242;6.028;2023-03-01T10:59:19;96710.0;;;1.5;69.25
77824;BME280;67015;46.242;6.028;2023-03-01T11:29:18;96689.0;;;1.81;68.89
77824;BME280;67015;46.242;6.028;2023-03-01T11:59:18;96648.0;;;1.99;66.47
77824;BME280;67015;46.242;6.028;2023-03-01T12:29:23;96627.0;;;2.47;66.12
77824;BME280;67015;46.242;6.028;2023-03-01T12:59:13;96616.0;;;2.45;66.37
77824;BME280;67015;46.242;6.028;2023-03-01T13:29:17;96583.0;;;2.65;64.71
77824;BME280;67015;46.242;6.028;2023-03-01T13:59:13;96586.0;;;2.73;65.44
77824;BME280;67015;46.242;6.028;2023-03-01T14:59:11;96564.0;;;2.67;65.48
77824;BME280;67015;46.242;6.028;2023-03-01T15:29:14;96573.0;;;2.63;67.16
77824;BME280;67015;46.242;6.028;2023-03-01T15:59:12;96582.0;;;2.2;68.95
77824;BME280;67015;46.242;6.028;2023-03-01T16:29:11;96584.0;;;2.18;68.3
77824;BME280;67015;46.242;6.028;2023-03-01T16:59:12;96576.0;;;2.1;70.26
77824;BME280;67015;46.242;6.028;2023-03-01T17:29:11;96608.0;;;1.86;70.65
77824;BME280;67015;46.242;6.028;2023-03-01T17:59:11;96634.0;;;1.7;72.48
77824;BME280;67015;46.242;6.028;2023-03-01T18:29:12;96657.0;;;1.65;71.56
77824;BME280;67015;46.242;6.028;2023-03-01T18:59:12;96649.0;;;1.48;72.2
77824;BME280;67015;46.242;6.028;2023-03-01T19:29:11;96655.0;;;1.45;72.9
77824;BME280;67015;46.242;6.028;2023-03-01T19:59:12;96653.0;;;1.42;72.26
77824;BME280;67015;46.242;6.028;2023-03-01T20:29:11;96627.0;;;1.37;70.7
77824;BME280;67015;46.242;6.028;2023-03-01T20:59:11;96643.0;;;1.35;70.79
77824;BME280;67015;46.242;6.028;2023-03-01T21:29:11;96616.0;;;1.37;71.39
77824;BME280;67015;46.242;6.028;2023-03-01T21:59:13;96599.0;;;1.27;72.11
77824;BME280;67015;46.242;6.028;2023-03-01T22:29:15;96566.0;;;1.29;71.68
77824;BME280;67015;46.242;6.028;2023-03-01T22:59:15;96557.0;;;1.32;71.55
77824;BME280;67015;46.242;6.028;2023-03-01T23:29:14;96534.0;;;1.32;71.92
77824;BME280;67015;46.242;6.028;2023-03-01T23:59:12;96498.0;;;1.37;71.2
